Airfield :
LOGIN :

Register | Disclaimer

   EN    FR    IT 

 










Legend :    VFR   Marginal VFR   IFR   Intensive IFR   Very Intensive IFR
Visi :
Ceiling :
>= 8 km
>= 3000ft
5 to 8 km
1000 to 3000 ft
1500m to 5 km
500 to 1000 ft
800 to 1500m
200 to 500 ft
< 800m
< 200 ft
Symbols :   Thunderstorms  Fog  Heavy snow  Heavy precipitations  Wind > 20 kt
SIGMETs :     Misc.  Thunderstorms  Icing  Turbulence  Mountain Waves  Volcanic Ashes







- Airport Elevation : 2595 ft
- IATA code : SLM


LESA - Salamanca Matacan

CURRENT METAR :
  • 220700Z 02006KT 5000 BR NSC 09/09 Q1024

EXPIRED METARs :
  • 220630Z 00000KT 5000 BR NSC 07/07 Q1023
  • 220600Z 01003KT CAVOK 07/07 Q1023
  • 220530Z 00000KT CAVOK 07/06 Q1023
  • 220500Z 20004KT CAVOK 08/07 Q1023
  • 220430Z AUTO 00000KT 9999 NCD 07/07 Q1023

TAF TAF LESA
Valid from the 22 at 06:00 until the 23 at 06:00 UTC


220500Z 2206/2306 VRB05KT CAVOK TX21/2214Z TN06/2306Z
PROB30
TEMPO 2206/2209 1200 BCFG BKN004
BECMG 2211/2213 05010KT
No reported NOTAMs for that airfield.



MET'MAP, your aeronautical weather chart ! - Copyright ORBIFLY December 2007 - Disclaimer

ORBIFLY MET'MAP TEAM :

Programming & Development : Alexandra Zaïnal
Concept & Development : Baudouin d'Aumeries
Co-Development & Prog : Marc-Olivier Méhu
Technical & hardware support : Manuel Goepfert

Contact : metmap@orbifly.com




SOURCES & CREDITS :

   NOAA